createdAt,value
2022-12-19T00:00:37.030Z,39.88
2022-12-19T00:03:06.075Z,39.50
2022-12-19T00:05:39.981Z,41.00
2022-12-19T00:08:17.444Z,38.60
2022-12-19T00:10:56.325Z,39.50
2022-12-19T00:13:25.514Z,39.80
2022-12-19T00:15:53.993Z,38.10
2022-12-19T00:18:22.540Z,38.88
2022-12-19T00:21:01.737Z,40.40
2022-12-19T00:23:32.845Z,37.90
2022-12-19T00:26:11.530Z,39.00
2022-12-19T00:28:40.623Z,39.28
2022-12-19T00:31:09.693Z,39.28
2022-12-19T00:33:40.624Z,38.65
2022-12-19T00:36:22.776Z,37.65
2022-12-19T00:38:52.934Z,38.65
2022-12-19T00:41:24.213Z,39.05
2022-12-19T00:43:55.298Z,39.55
2022-12-19T00:46:24.360Z,40.10
2022-12-19T00:48:53.055Z,40.15
2022-12-19T00:51:25.941Z,40.53
2022-12-19T00:53:56.596Z,37.78
2022-12-19T00:56:27.047Z,38.53
2022-12-19T00:58:56.363Z,40.33
2022-12-19T01:01:29.136Z,37.70
2022-12-19T01:06:51.407Z,38.92
2022-12-19T01:09:21.838Z,39.88
2022-12-19T01:12:08.086Z,39.08
2022-12-19T01:14:36.537Z,38.95
2022-12-19T01:17:05.269Z,39.78
2022-12-19T01:19:34.587Z,40.05
2022-12-19T01:22:06.344Z,39.90
2022-12-19T01:24:35.197Z,39.85
2022-12-19T01:27:03.447Z,39.67
2022-12-19T01:29:33.506Z,38.83
2022-12-19T01:32:03.988Z,40.42
2022-12-19T01:34:32.613Z,40.58
2022-12-19T01:37:00.919Z,38.47
2022-12-19T01:39:31.135Z,39.17
2022-12-19T01:42:02.058Z,37.83
2022-12-19T01:44:31.015Z,36.33
2022-12-19T01:47:00.383Z,37.05
2022-12-19T01:49:32.152Z,37.05
2022-12-19T01:52:04.295Z,36.95
2022-12-19T01:54:36.524Z,36.83
2022-12-19T01:57:11.328Z,37.42
2022-12-19T01:59:44.710Z,36.55
2022-12-19T02:02:19.180Z,37.42
2022-12-19T02:04:48.920Z,36.13
2022-12-19T02:07:19.910Z,36.20
2022-12-19T02:09:57.402Z,35.78
2022-12-19T02:12:27.811Z,36.15
2022-12-19T02:15:02.498Z,37.72
2022-12-19T02:17:42.410Z,34.83
2022-12-19T02:21:06.270Z,36.00
2022-12-19T02:24:22.399Z,34.95
2022-12-19T02:27:17.596Z,34.90
2022-12-19T02:30:10.395Z,34.42
2022-12-19T02:32:59.545Z,34.47
2022-12-19T02:35:35.508Z,31.58
2022-12-19T02:38:14.160Z,33.70
2022-12-19T02:40:54.637Z,32.67
2022-12-19T02:43:26.004Z,32.67
2022-12-19T02:45:55.071Z,33.25
2022-12-19T02:48:25.854Z,33.28
2022-12-19T02:50:54.071Z,32.05
2022-12-19T02:53:23.841Z,32.40
2022-12-19T02:56:11.730Z,31.58
2022-12-19T02:59:06.793Z,31.52
2022-12-19T03:01:45.972Z,29.92
2022-12-19T03:04:31.253Z,31.05
2022-12-19T03:07:08.797Z,30.55
2022-12-19T03:09:47.763Z,29.88
2022-12-19T03:12:23.727Z,30.92
2022-12-19T03:14:54.251Z,30.98
2022-12-19T03:17:23.067Z,29.95
2022-12-19T03:19:53.106Z,30.20
2022-12-19T03:22:22.317Z,28.92
2022-12-19T03:24:51.170Z,29.95
2022-12-19T03:27:26.195Z,28.40
2022-12-19T03:30:01.936Z,29.17
2022-12-19T03:32:33.123Z,28.65
2022-12-19T03:35:07.403Z,27.67
2022-12-19T03:37:39.816Z,28.05
2022-12-19T03:40:12.411Z,25.65
2022-12-19T03:43:00.830Z,26.90
2022-12-19T03:45:39.461Z,27.65
2022-12-19T03:48:12.691Z,25.35
2022-12-19T03:50:50.878Z,26.60
2022-12-19T03:53:33.844Z,26.42
2022-12-19T03:56:12.649Z,27.02
2022-12-19T03:58:43.776Z,27.00
2022-12-19T04:01:12.486Z,26.65
2022-12-19T04:03:41.238Z,26.65
2022-12-19T04:06:11.556Z,27.15
2022-12-19T04:08:40.422Z,25.95
2022-12-19T04:11:15.530Z,26.05
2022-12-19T04:13:52.074Z,26.27
2022-12-19T04:16:26.507Z,25.75
2022-12-19T04:19:02.238Z,27.40
2022-12-19T04:21:37.760Z,25.98
2022-12-19T04:24:11.500Z,24.73
2022-12-19T04:26:44.832Z,25.55
2022-12-19T04:29:15.475Z,25.92
2022-12-19T04:31:44.495Z,25.75
2022-12-19T04:34:12.863Z,24.02
2022-12-19T04:36:42.745Z,23.45
2022-12-19T04:39:11.033Z,24.40
2022-12-19T04:41:39.353Z,25.23
2022-12-19T04:44:07.944Z,25.10
2022-12-19T04:46:36.513Z,25.55
2022-12-19T04:49:04.791Z,25.92
2022-12-19T04:51:33.249Z,24.52
2022-12-19T04:54:02.950Z,23.98
2022-12-19T04:56:31.175Z,25.00
2022-12-19T04:59:00.239Z,25.90
2022-12-19T05:01:28.781Z,25.25
2022-12-19T05:04:02.761Z,23.30
2022-12-19T05:06:33.051Z,22.95
2022-12-19T05:09:02.793Z,23.35
2022-12-19T05:11:31.436Z,24.80
2022-12-19T05:14:00.303Z,25.38
2022-12-19T05:16:28.683Z,25.98
2022-12-19T05:18:57.203Z,26.98
2022-12-19T05:21:25.692Z,26.08
2022-12-19T05:23:53.979Z,26.20
2022-12-19T05:26:23.719Z,27.58
2022-12-19T05:28:52.031Z,27.95
2022-12-19T05:31:21.994Z,27.92
2022-12-19T05:33:50.612Z,25.85
2022-12-19T05:36:20.180Z,28.15
2022-12-19T05:38:48.423Z,29.85
2022-12-19T05:41:19.160Z,29.55
2022-12-19T05:43:54.157Z,30.35
2022-12-19T05:46:23.779Z,30.25
2022-12-19T05:48:52.278Z,31.00
2022-12-19T05:51:20.984Z,27.15
2022-12-19T05:53:49.308Z,29.30
2022-12-19T05:56:20.775Z,30.35
2022-12-19T05:58:51.045Z,30.77
2022-12-19T06:01:22.125Z,25.00
2022-12-19T06:03:50.845Z,27.00
2022-12-19T06:06:22.819Z,23.80
2022-12-19T06:08:54.856Z,25.23
2022-12-19T06:11:23.569Z,24.88
2022-12-19T06:13:53.428Z,24.55
2022-12-19T06:16:24.319Z,25.55
2022-12-19T06:18:53.061Z,23.02
2022-12-19T06:21:23.891Z,20.90
2022-12-19T06:23:52.653Z,22.48
2022-12-19T06:26:22.721Z,22.50
2022-12-19T06:28:54.052Z,24.08
2022-12-19T06:31:25.315Z,22.48
2022-12-19T06:33:53.918Z,22.27
2022-12-19T06:36:24.951Z,23.20
2022-12-19T06:39:00.416Z,24.45
2022-12-19T06:41:47.104Z,24.70
2022-12-19T06:44:18.900Z,22.85
2022-12-19T06:46:47.205Z,22.05
2022-12-19T06:49:15.831Z,20.17
2022-12-19T06:51:44.322Z,24.75
2022-12-19T06:54:16.022Z,24.92
2022-12-19T06:56:44.733Z,22.52
2022-12-19T06:59:16.602Z,22.45
2022-12-19T07:01:57.094Z,20.92
2022-12-19T07:04:31.128Z,23.70
2022-12-19T07:07:00.176Z,24.10
2022-12-19T07:09:30.244Z,20.70
2022-12-19T07:11:58.550Z,20.02
2022-12-19T07:14:28.216Z,18.17
2022-12-19T07:16:59.424Z,17.70
2022-12-19T07:19:28.872Z,16.77
2022-12-19T07:21:57.702Z,17.27
2022-12-19T07:24:25.933Z,17.58
2022-12-19T07:26:54.200Z,16.13
2022-12-19T07:29:22.739Z,16.52
2022-12-19T07:31:52.784Z,16.20
2022-12-19T07:34:21.470Z,15.60
2022-12-19T07:36:50.054Z,16.23
2022-12-19T07:39:18.276Z,15.40
2022-12-19T07:41:46.495Z,17.67
2022-12-19T07:44:16.519Z,17.15
2022-12-19T07:46:45.140Z,17.70
2022-12-19T07:49:21.021Z,16.75
2022-12-19T07:51:51.083Z,18.27
2022-12-19T07:54:19.888Z,17.65
2022-12-19T07:56:48.097Z,18.17
2022-12-19T07:59:16.571Z,17.23
2022-12-19T08:01:44.901Z,18.02
2022-12-19T08:04:14.737Z,16.98
2022-12-19T08:06:42.998Z,19.25
2022-12-19T08:09:11.247Z,18.35
2022-12-19T08:11:39.713Z,20.45
2022-12-19T08:14:07.999Z,21.05
2022-12-19T08:16:55.717Z,19.98
2022-12-19T08:19:27.806Z,18.77
2022-12-19T08:21:56.187Z,18.83
2022-12-19T08:24:25.224Z,18.00
2022-12-19T08:26:53.657Z,17.85
2022-12-19T08:29:22.000Z,18.13
2022-12-19T08:31:50.250Z,17.40
2022-12-19T08:34:18.545Z,17.63
2022-12-19T08:36:48.095Z,16.60
2022-12-19T08:39:16.592Z,17.20
2022-12-19T08:41:45.079Z,15.52
2022-12-19T08:44:13.606Z,15.48
2022-12-19T08:46:48.062Z,16.70
2022-12-19T08:49:18.204Z,15.50
2022-12-19T08:51:48.226Z,15.27
2022-12-19T08:54:16.897Z,15.10
2022-12-19T08:56:46.440Z,15.23
2022-12-19T08:59:22.151Z,14.75
2022-12-19T09:01:59.048Z,15.65
2022-12-19T09:05:57.250Z,14.68
2022-12-19T09:07:17.381Z,15.43
2022-12-19T09:09:45.780Z,15.95
2022-12-19T09:12:15.018Z,14.10
2022-12-19T09:14:44.192Z,15.73
2022-12-19T09:17:12.605Z,14.82
2022-12-19T09:19:41.250Z,15.57
2022-12-19T09:22:17.721Z,15.50
2022-12-19T09:24:46.924Z,15.75
2022-12-19T09:27:15.336Z,15.80
2022-12-19T09:29:44.457Z,15.05
2022-12-19T09:32:12.906Z,14.77
2022-12-19T09:34:41.599Z,15.75
2022-12-19T09:37:16.226Z,15.75
2022-12-19T09:39:48.368Z,16.33
2022-12-19T09:42:42.841Z,15.52
2022-12-19T09:45:31.829Z,15.77
2022-12-19T09:48:01.701Z,15.95
2022-12-19T09:50:44.389Z,15.68
2022-12-19T09:53:22.429Z,16.23
2022-12-19T09:55:55.736Z,15.63
2022-12-19T09:58:35.994Z,16.20
2022-12-19T10:01:08.263Z,15.70
2022-12-19T10:03:40.765Z,14.85
2022-12-19T10:07:12.990Z,14.35
2022-12-19T10:10:49.126Z,14.32
2022-12-19T10:12:43.160Z,15.02
2022-12-19T10:15:21.066Z,15.00
2022-12-19T10:18:18.980Z,14.93
2022-12-19T10:20:55.205Z,14.30
2022-12-19T10:24:02.536Z,13.52
2022-12-19T10:26:37.909Z,12.27
2022-12-19T10:29:27.049Z,12.68
2022-12-19T10:32:04.350Z,12.73
2022-12-19T10:34:40.683Z,13.27
2022-12-19T10:37:26.783Z,12.43
2022-12-19T10:40:17.599Z,13.15
2022-12-19T10:43:07.455Z,12.10
2022-12-19T10:45:47.091Z,12.82
2022-12-19T10:48:22.547Z,12.15
2022-12-19T10:51:00.155Z,12.40
2022-12-19T10:53:34.533Z,12.75
2022-12-19T10:56:04.278Z,13.57
2022-12-19T10:58:36.558Z,12.45
2022-12-19T11:01:14.341Z,12.77
2022-12-19T11:03:46.559Z,12.80
2022-12-19T11:06:51.269Z,12.52
2022-12-19T11:09:29.363Z,13.10
2022-12-19T11:15:48.017Z,12.80
2022-12-19T11:19:13.409Z,13.77
2022-12-19T11:27:55.759Z,12.65
2022-12-19T11:29:27.381Z,13.38
2022-12-19T11:29:38.156Z,13.23
2022-12-19T11:30:48.178Z,13.43
2022-12-19T11:32:42.067Z,13.63
2022-12-19T11:35:24.736Z,12.95
2022-12-19T11:38:10.063Z,13.55
2022-12-19T11:40:49.182Z,13.52
2022-12-19T11:43:45.427Z,10.95
2022-12-19T11:46:33.680Z,11.27
2022-12-19T11:49:07.737Z,10.70
2022-12-19T11:51:49.326Z,11.23
2022-12-19T11:54:25.392Z,11.25
2022-12-19T11:56:54.105Z,11.88
2022-12-19T11:59:28.921Z,10.68
2022-12-19T12:02:13.761Z,10.95
2022-12-19T12:05:11.138Z,9.60
2022-12-19T12:09:10.814Z,11.00
2022-12-19T12:16:58.631Z,10.65
2022-12-19T12:21:42.975Z,10.07
2022-12-19T12:27:19.993Z,9.90
2022-12-19T12:31:07.692Z,9.70
2022-12-19T12:31:22.988Z,9.57
2022-12-19T12:31:38.741Z,9.70
2022-12-19T12:31:48.340Z,9.63
2022-12-19T12:35:33.636Z,8.60
2022-12-19T12:38:36.306Z,7.80
2022-12-19T12:41:19.913Z,9.52
2022-12-19T12:44:07.700Z,8.65
2022-12-19T12:46:42.155Z,8.35
2022-12-19T12:49:33.480Z,8.43
2022-12-19T12:52:05.216Z,8.13
2022-12-19T12:54:37.787Z,8.52
2022-12-19T12:57:07.564Z,8.10
2022-12-19T12:59:35.872Z,8.30
2022-12-19T13:02:19.052Z,7.85
2022-12-19T13:04:59.371Z,7.70
2022-12-19T13:07:43.214Z,6.90
2022-12-19T13:10:26.313Z,6.82
2022-12-19T13:13:04.350Z,5.88
2022-12-19T13:15:45.129Z,5.72
2022-12-19T13:18:34.744Z,6.07
2022-12-19T13:21:09.143Z,6.55
2022-12-19T13:23:49.111Z,6.07
2022-12-19T13:26:52.440Z,6.28
2022-12-19T13:29:58.113Z,6.25
2022-12-19T13:32:27.260Z,6.20
2022-12-19T13:35:19.405Z,6.00
2022-12-19T13:40:00.503Z,5.90
2022-12-19T13:41:01.620Z,5.88
2022-12-19T13:43:49.342Z,5.45
2022-12-19T13:46:31.007Z,5.65
2022-12-19T13:49:04.897Z,6.00
2022-12-19T13:51:46.260Z,6.10
2022-12-19T13:54:23.377Z,7.00
2022-12-19T13:56:53.642Z,9.40
2022-12-19T13:59:26.113Z,6.72
2022-12-19T14:01:56.774Z,5.85
2022-12-19T14:04:31.193Z,6.13
2022-12-19T14:07:03.327Z,4.72
2022-12-19T14:11:31.040Z,5.68
2022-12-19T14:13:44.312Z,5.05
2022-12-19T14:15:38.273Z,5.85
2022-12-19T14:18:43.737Z,5.22
2022-12-19T14:22:04.512Z,4.40
2022-12-19T14:24:21.497Z,4.45
2022-12-19T14:28:22.203Z,5.22
2022-12-19T14:30:28.283Z,4.70
2022-12-19T14:33:45.706Z,4.78
2022-12-19T14:36:09.641Z,4.82
2022-12-19T14:39:25.001Z,4.03
2022-12-19T14:42:00.563Z,4.53
2022-12-19T14:53:51.780Z,4.85
2022-12-19T14:54:11.024Z,4.50
2022-12-19T14:54:26.787Z,4.55
2022-12-19T14:54:31.209Z,4.80
2022-12-19T14:59:04.348Z,4.30
2022-12-19T15:01:36.715Z,4.90
2022-12-19T15:04:47.873Z,4.95
2022-12-19T15:07:08.032Z,4.53
2022-12-19T15:11:01.040Z,5.15
2022-12-19T15:14:47.322Z,4.70
2022-12-19T15:16:01.174Z,4.57
2022-12-19T15:18:40.075Z,4.95
2022-12-19T15:21:12.614Z,5.00
2022-12-19T15:23:44.917Z,5.13
2022-12-19T15:26:17.442Z,5.18
2022-12-19T15:28:49.653Z,5.13
2022-12-19T15:31:36.644Z,5.60
2022-12-19T15:34:46.371Z,5.70
2022-12-19T15:37:13.084Z,5.35
2022-12-19T15:39:44.037Z,6.10
2022-12-19T15:42:20.350Z,5.15
2022-12-19T15:44:49.889Z,6.07
2022-12-19T15:47:23.090Z,6.40
2022-12-19T15:49:51.445Z,5.10
2022-12-19T15:52:22.375Z,5.03
2022-12-19T15:54:52.025Z,6.50
2022-12-19T15:57:30.780Z,4.93
2022-12-19T16:00:01.041Z,5.65
2022-12-19T16:03:12.840Z,5.60
2022-12-19T16:05:24.053Z,5.65
2022-12-19T16:07:52.631Z,6.53
2022-12-19T16:10:22.940Z,5.72
2022-12-19T16:12:55.418Z,5.95
2022-12-19T16:15:30.111Z,5.97
2022-12-19T16:18:00.625Z,5.90
2022-12-19T16:20:32.377Z,5.13
2022-12-19T16:23:01.024Z,5.30
2022-12-19T16:25:36.730Z,6.28
2022-12-19T16:28:07.045Z,5.63
2022-12-19T16:30:36.791Z,7.10
2022-12-19T16:33:18.752Z,7.22
2022-12-19T16:36:04.712Z,6.13
2022-12-19T16:38:35.264Z,5.80
2022-12-19T16:41:05.286Z,5.45
2022-12-19T16:43:38.507Z,5.63
2022-12-19T16:46:08.726Z,5.85
2022-12-19T16:48:37.028Z,5.28
2022-12-19T16:51:05.645Z,5.25
2022-12-19T16:53:34.087Z,5.13
2022-12-19T16:56:04.657Z,5.28
2022-12-19T16:58:36.759Z,5.18
2022-12-19T17:01:10.735Z,5.28
2022-12-19T17:03:42.316Z,4.63
2022-12-19T17:06:13.715Z,5.45
2022-12-19T17:08:42.128Z,5.68
2022-12-19T17:11:17.736Z,6.10
2022-12-19T17:13:48.343Z,8.50
2022-12-19T17:16:16.944Z,9.52
2022-12-19T17:18:47.071Z,6.18
2022-12-19T17:21:18.917Z,6.43
2022-12-19T17:23:47.396Z,6.03
2022-12-19T17:26:18.241Z,5.38
2022-12-19T17:28:48.365Z,5.35
2022-12-19T17:31:24.356Z,6.10
2022-12-19T17:33:53.653Z,5.97
2022-12-19T17:36:26.081Z,6.10
2022-12-19T17:38:55.981Z,5.80
2022-12-19T17:41:25.958Z,6.70
2022-12-19T17:43:54.192Z,6.25
2022-12-19T17:46:25.084Z,6.25
2022-12-19T17:48:54.756Z,5.68
2022-12-19T17:51:24.827Z,5.43
2022-12-19T17:53:53.075Z,6.53
2022-12-19T17:56:22.076Z,6.47
2022-12-19T17:58:51.838Z,5.88
2022-12-19T18:01:22.147Z,6.25
2022-12-19T18:03:52.500Z,6.20
2022-12-19T18:06:21.709Z,6.28
2022-12-19T18:08:50.032Z,6.63
2022-12-19T18:11:21.727Z,6.15
2022-12-19T18:13:52.369Z,7.88
2022-12-19T18:16:26.132Z,6.55
2022-12-19T18:18:54.815Z,6.45
2022-12-19T18:21:25.109Z,5.78
2022-12-19T18:23:53.998Z,6.05
2022-12-19T18:26:22.251Z,6.45
2022-12-19T18:28:51.942Z,6.03
2022-12-19T18:31:26.423Z,6.40
2022-12-19T18:34:02.051Z,6.13
2022-12-19T18:36:40.875Z,6.38
2022-12-19T18:39:21.640Z,6.40
2022-12-19T18:41:51.313Z,6.30
2022-12-19T18:44:22.767Z,6.55
2022-12-19T18:46:51.904Z,9.10
2022-12-19T18:49:20.885Z,8.70
2022-12-19T18:51:49.174Z,7.00
2022-12-19T18:54:20.288Z,8.55
2022-12-19T18:56:48.746Z,13.32
2022-12-19T18:59:16.955Z,7.45
2022-12-19T19:01:48.401Z,6.28
2022-12-19T19:04:18.041Z,5.97
2022-12-19T19:06:51.450Z,5.63
2022-12-19T19:09:24.084Z,6.05
2022-12-19T19:11:52.464Z,5.65
2022-12-19T19:14:20.862Z,5.70
2022-12-19T19:16:52.359Z,6.20
2022-12-19T19:19:21.246Z,6.00
2022-12-19T19:21:49.585Z,5.97
2022-12-19T19:24:20.615Z,5.70
2022-12-19T19:26:49.706Z,5.75
2022-12-19T19:29:19.702Z,5.38
2022-12-19T19:31:53.218Z,5.70
2022-12-19T19:34:30.757Z,6.28
2022-12-19T19:37:04.932Z,5.85
2022-12-19T19:39:35.875Z,5.28
2022-12-19T19:42:04.796Z,5.95
2022-12-19T19:44:33.211Z,5.97
2022-12-19T19:47:03.017Z,5.78
2022-12-19T19:49:31.661Z,5.93
2022-12-19T19:52:02.927Z,5.68
2022-12-19T19:54:31.786Z,5.93
2022-12-19T19:57:00.203Z,5.35
2022-12-19T19:59:31.901Z,5.75
2022-12-19T20:02:00.373Z,5.80
2022-12-19T20:04:30.361Z,5.60
2022-12-19T20:06:58.802Z,5.78
2022-12-19T20:09:27.185Z,6.30
2022-12-19T20:11:55.904Z,5.80
2022-12-19T20:14:24.921Z,7.20
2022-12-19T20:16:53.411Z,13.65
2022-12-19T20:19:21.686Z,14.02
2022-12-19T20:21:51.591Z,6.55
2022-12-19T20:24:19.961Z,5.97
2022-12-19T20:26:48.198Z,5.80
2022-12-19T20:29:16.469Z,5.60
2022-12-19T20:31:45.248Z,6.38
2022-12-19T20:34:13.667Z,5.93
2022-12-19T20:36:42.690Z,5.80
2022-12-19T20:39:12.588Z,5.97
2022-12-19T20:41:41.102Z,6.03
2022-12-19T20:44:09.368Z,6.35
2022-12-19T20:46:38.806Z,5.90
2022-12-19T20:49:07.045Z,6.30
2022-12-19T20:51:35.270Z,5.97
2022-12-19T20:54:04.792Z,5.90
2022-12-19T20:56:35.185Z,6.28
2022-12-19T20:59:03.981Z,5.72
2022-12-19T21:01:32.879Z,5.55
2022-12-19T21:04:01.415Z,5.75
2022-12-19T21:06:32.373Z,6.18
2022-12-19T21:09:05.402Z,6.45
2022-12-19T21:11:36.615Z,6.45
2022-12-19T21:14:05.831Z,6.13
2022-12-19T21:16:34.160Z,5.90
2022-12-19T21:19:02.539Z,6.47
2022-12-19T21:21:30.952Z,6.53
2022-12-19T21:24:01.753Z,6.13
2022-12-19T21:26:30.454Z,5.95
2022-12-19T21:29:00.188Z,6.05
2022-12-19T21:31:31.102Z,6.20
2022-12-19T21:34:03.272Z,6.22
2022-12-19T21:36:32.651Z,5.70
2022-12-19T21:39:02.992Z,5.63
2022-12-19T21:41:32.205Z,6.15
2022-12-19T21:44:01.937Z,5.80
2022-12-19T21:46:34.050Z,6.03
2022-12-19T21:49:03.642Z,6.10
2022-12-19T21:51:33.229Z,6.20
2022-12-19T21:54:04.163Z,6.10
2022-12-19T21:56:34.276Z,6.00
2022-12-19T21:59:07.007Z,6.30
2022-12-19T22:01:35.614Z,6.68
2022-12-19T22:04:11.640Z,6.20
2022-12-19T22:06:41.046Z,6.05
2022-12-19T22:09:13.886Z,6.05
2022-12-19T22:11:42.973Z,5.90
2022-12-19T22:14:14.006Z,5.90
2022-12-19T22:16:42.721Z,5.78
2022-12-19T22:19:13.875Z,6.35
2022-12-19T22:21:42.180Z,6.43
2022-12-19T22:24:14.130Z,6.07
2022-12-19T22:26:42.901Z,5.68
2022-12-19T22:29:15.626Z,5.40
2022-12-19T22:31:44.706Z,5.93
2022-12-19T22:34:15.506Z,6.10
2022-12-19T22:36:45.275Z,6.25
2022-12-19T22:39:15.794Z,5.88
2022-12-19T22:41:45.280Z,5.78
2022-12-19T22:44:19.551Z,5.93
2022-12-19T22:46:48.255Z,5.90
2022-12-19T22:49:17.109Z,6.40
2022-12-19T22:51:45.520Z,6.30
2022-12-19T22:54:14.561Z,6.40
2022-12-19T22:56:43.568Z,6.03
2022-12-19T22:59:14.528Z,6.43
2022-12-19T23:01:44.962Z,6.55
2022-12-19T23:04:16.465Z,6.03
2022-12-19T23:06:45.508Z,6.45
2022-12-19T23:09:16.984Z,5.90
2022-12-19T23:11:48.837Z,6.38
2022-12-19T23:14:20.518Z,6.47
2022-12-19T23:16:50.015Z,6.38
2022-12-19T23:19:18.885Z,5.95
2022-12-19T23:21:47.341Z,5.65
2022-12-19T23:24:15.751Z,6.68
2022-12-19T23:26:44.045Z,6.20
2022-12-19T23:29:14.662Z,6.18
2022-12-19T23:31:46.688Z,6.72
2022-12-19T23:34:15.852Z,5.95
2022-12-19T23:39:32.347Z,5.70
2022-12-19T23:42:00.866Z,5.47
2022-12-19T23:44:29.517Z,6.43
2022-12-19T23:47:03.535Z,6.07
2022-12-19T23:49:33.023Z,5.07
2022-12-19T23:52:01.282Z,5.68
2022-12-19T23:54:29.486Z,5.07
2022-12-19T23:56:57.756Z,5.30
2022-12-19T23:59:26.035Z,5.40
